GLO1169 SBCT-SBGR
Flight info
| Callsign | GLO1169 |
|---|---|
| Flight time | 0h 44m |
| Altitude | 31000 |
| Route | XONUG UZ121 BUXUK |
| Aircraft | B38M/M-SDE1FGHILORVWXY/HB1 |
Departure
| Time | 2026-05-03 23:07 |
|---|---|
| Airport | Curitiba-Afonso Pena International Airport (SBCT) |
Arrival
| Time | 2026-05-03 23:51 |
|---|---|
| Airport | São Paulo/Guarulhos–Governor André Franco Montoro International Airport (SBGR) |
| Time | Latitude | Longitude | Altitude | Speed | Heading |
|---|---|---|---|---|---|
| 2026-05-03 22:15 | -25.53565 | -49.17228 | 2998 ft | 0 kts | 224° |
| 2026-05-03 22:58 | -25.53556 | -49.17218 | 2998 ft | 3 kts | 224° |
| 2026-05-03 22:58 | -25.53543 | -49.17204 | 2998 ft | 2 kts | 224° |
| 2026-05-03 22:58 | -25.53531 | -49.17189 | 2998 ft | 3 kts | 243° |
| 2026-05-03 22:58 | -25.53527 | -49.17170 | 2998 ft | 3 kts | 281° |
| 2026-05-03 22:59 | -25.53535 | -49.17152 | 2998 ft | 3 kts | 311° |
| 2026-05-03 22:59 | -25.53546 | -49.17139 | 2998 ft | 1 kts | 314° |
| 2026-05-03 22:59 | -25.53549 | -49.17135 | 2998 ft | 0 kts | 314° |
| 2026-05-03 23:01 | -25.53529 | -49.17158 | 2998 ft | 9 kts | 314° |
| 2026-05-03 23:01 | -25.53467 | -49.17229 | 3005 ft | 14 kts | 314° |
| 2026-05-03 23:02 | -25.53405 | -49.17269 | 3005 ft | 10 kts | 4° |
| 2026-05-03 23:02 | -25.53337 | -49.17263 | 3005 ft | 11 kts | 336° |
| 2026-05-03 23:02 | -25.53271 | -49.17330 | 3005 ft | 16 kts | 314° |
| 2026-05-03 23:02 | -25.53175 | -49.17436 | 3005 ft | 23 kts | 315° |
| 2026-05-03 23:03 | -25.53057 | -49.17566 | 3004 ft | 21 kts | 315° |
| 2026-05-03 23:03 | -25.52987 | -49.17668 | 3004 ft | 17 kts | 286° |
| 2026-05-03 23:03 | -25.52978 | -49.17802 | 3004 ft | 18 kts | 271° |
| 2026-05-03 23:03 | -25.52926 | -49.17928 | 3003 ft | 19 kts | 315° |
| 2026-05-03 23:04 | -25.52803 | -49.17998 | 3001 ft | 21 kts | 358° |
| 2026-05-03 23:04 | -25.52659 | -49.18000 | 3004 ft | 21 kts | 359° |
| 2026-05-03 23:04 | -25.52511 | -49.18004 | 3004 ft | 22 kts | 349° |
| 2026-05-03 23:04 | -25.52386 | -49.18096 | 3004 ft | 22 kts | 314° |
| 2026-05-03 23:05 | -25.52292 | -49.18195 | 3005 ft | 16 kts | 324° |
| 2026-05-03 23:05 | -25.52217 | -49.18238 | 3004 ft | 10 kts | 304° |
| 2026-05-03 23:05 | -25.52231 | -49.18265 | 3004 ft | 1 kts | 167° |
| 2026-05-03 23:05 | -25.52246 | -49.18254 | 3004 ft | 3 kts | 136° |
| 2026-05-03 23:06 | -25.52249 | -49.18251 | 3006 ft | 2 kts | 136° |
| 2026-05-03 23:06 | -25.52428 | -49.18050 | 3004 ft | 78 kts | 134° |
| 2026-05-03 23:06 | -25.52979 | -49.17432 | 2999 ft | 148 kts | 134° |
| 2026-05-03 23:06 | -25.53826 | -49.16458 | 3157 ft | 195 kts | 134° |
| 2026-05-03 23:07 | -25.54816 | -49.15314 | 3939 ft | 215 kts | 133° |
| 2026-05-03 23:07 | -25.55514 | -49.13832 | 4931 ft | 228 kts | 101° |
| 2026-05-03 23:07 | -25.55262 | -49.12040 | 5484 ft | 247 kts | 58° |
| 2026-05-03 23:07 | -25.54163 | -49.10514 | 6196 ft | 263 kts | 49° |
| 2026-05-03 23:08 | -25.53016 | -49.08832 | 6836 ft | 284 kts | 53° |
| 2026-05-03 23:08 | -25.51872 | -49.06957 | 7472 ft | 302 kts | 56° |
| 2026-05-03 23:08 | -25.50747 | -49.04988 | 8443 ft | 305 kts | 58° |
| 2026-05-03 23:08 | -25.49626 | -49.02955 | 9299 ft | 313 kts | 59° |
| 2026-05-03 23:09 | -25.48498 | -49.00870 | 10228 ft | 319 kts | 60° |
| 2026-05-03 23:09 | -25.47374 | -48.98768 | 11071 ft | 322 kts | 60° |
| 2026-05-03 23:09 | -25.46187 | -48.96647 | 11861 ft | 331 kts | 52° |
| 2026-05-03 23:09 | -25.44419 | -48.94938 | 12289 ft | 348 kts | 27° |
| 2026-05-03 23:10 | -25.42108 | -48.94071 | 12832 ft | 356 kts | 9° |
| 2026-05-03 23:10 | -25.39655 | -48.93437 | 13502 ft | 365 kts | 12° |
| 2026-05-03 23:10 | -25.37192 | -48.92772 | 14387 ft | 365 kts | 11° |
| 2026-05-03 23:10 | -25.34715 | -48.92102 | 15118 ft | 368 kts | 11° |
| 2026-05-03 23:11 | -25.32220 | -48.91427 | 15855 ft | 370 kts | 10° |
| 2026-05-03 23:11 | -25.29713 | -48.90746 | 16570 ft | 372 kts | 9° |
| 2026-05-03 23:11 | -25.27191 | -48.90060 | 17261 ft | 375 kts | 9° |
| 2026-05-03 23:11 | -25.24641 | -48.89367 | 17934 ft | 378 kts | 8° |
| 2026-05-03 23:12 | -25.22949 | -48.88907 | 18375 ft | 380 kts | 8° |
| 2026-05-03 23:12 | -25.20368 | -48.88205 | 18947 ft | 383 kts | 8° |
| 2026-05-03 23:12 | -25.17766 | -48.87499 | 19460 ft | 387 kts | 7° |
| 2026-05-03 23:12 | -25.14304 | -48.86395 | 20131 ft | 400 kts | 19° |
| 2026-05-03 23:13 | -25.11928 | -48.84730 | 20699 ft | 412 kts | 33° |
| 2026-05-03 23:13 | -25.09672 | -48.82751 | 21175 ft | 417 kts | 33° |
| 2026-05-03 23:13 | -25.07400 | -48.80739 | 21649 ft | 422 kts | 33° |
| 2026-05-03 23:13 | -25.05853 | -48.79357 | 21970 ft | 424 kts | 33° |
| 2026-05-03 23:14 | -25.03582 | -48.77322 | 22427 ft | 428 kts | 33° |
| 2026-05-03 23:14 | -25.01261 | -48.75235 | 22877 ft | 433 kts | 33° |
| 2026-05-03 23:14 | -24.98918 | -48.73129 | 23330 ft | 437 kts | 33° |
| 2026-05-03 23:14 | -24.96550 | -48.71001 | 23796 ft | 441 kts | 33° |
| 2026-05-03 23:15 | -24.94159 | -48.68855 | 24167 ft | 445 kts | 33° |
| 2026-05-03 23:15 | -24.91756 | -48.66696 | 24554 ft | 447 kts | 33° |
| 2026-05-03 23:15 | -24.89340 | -48.64531 | 24975 ft | 449 kts | 33° |
| 2026-05-03 23:15 | -24.86909 | -48.62352 | 25385 ft | 451 kts | 33° |
| 2026-05-03 23:16 | -24.84467 | -48.60163 | 25755 ft | 454 kts | 32° |
| 2026-05-03 23:16 | -24.82011 | -48.57963 | 26128 ft | 457 kts | 32° |
| 2026-05-03 23:16 | -24.79540 | -48.55752 | 26535 ft | 459 kts | 32° |
| 2026-05-03 23:16 | -24.77055 | -48.53527 | 26929 ft | 461 kts | 32° |
| 2026-05-03 23:17 | -24.74551 | -48.51288 | 27181 ft | 464 kts | 32° |
| 2026-05-03 23:17 | -24.72042 | -48.49046 | 27591 ft | 465 kts | 31° |
| 2026-05-03 23:17 | -24.69554 | -48.46824 | 27955 ft | 468 kts | 31° |
| 2026-05-03 23:17 | -24.67022 | -48.44563 | 28310 ft | 470 kts | 31° |
| 2026-05-03 23:18 | -24.64482 | -48.42296 | 28674 ft | 472 kts | 31° |
| 2026-05-03 23:18 | -24.61928 | -48.40018 | 29007 ft | 474 kts | 31° |
| 2026-05-03 23:18 | -24.59355 | -48.37724 | 29338 ft | 477 kts | 31° |
| 2026-05-03 23:18 | -24.56767 | -48.35419 | 29653 ft | 480 kts | 31° |
| 2026-05-03 23:19 | -24.54170 | -48.33106 | 30004 ft | 482 kts | 31° |
| 2026-05-03 23:19 | -24.51559 | -48.30783 | 30340 ft | 484 kts | 31° |
| 2026-05-03 23:19 | -24.48938 | -48.28452 | 30615 ft | 486 kts | 31° |
| 2026-05-03 23:19 | -24.46309 | -48.26114 | 30851 ft | 488 kts | 31° |
| 2026-05-03 23:20 | -24.43662 | -48.23764 | 31110 ft | 490 kts | 31° |
| 2026-05-03 23:20 | -24.40999 | -48.21398 | 31258 ft | 495 kts | 31° |
| 2026-05-03 23:20 | -24.38307 | -48.19009 | 31224 ft | 500 kts | 31° |
| 2026-05-03 23:21 | -24.32690 | -48.14662 | 31238 ft | 484 kts | 19° |
| 2026-05-03 23:21 | -24.26741 | -48.11149 | 31224 ft | 486 kts | 20° |
| 2026-05-03 23:22 | -24.17803 | -48.05881 | 31239 ft | 487 kts | 20° |
| 2026-05-03 23:22 | -24.11876 | -48.02392 | 31233 ft | 486 kts | 20° |
| 2026-05-03 23:23 | -24.05925 | -47.98893 | 31223 ft | 485 kts | 20° |
| 2026-05-03 23:23 | -23.99978 | -47.95402 | 31229 ft | 485 kts | 20° |
| 2026-05-03 23:24 | -23.94025 | -47.91909 | 31227 ft | 484 kts | 20° |
| 2026-05-03 23:24 | -23.88085 | -47.88429 | 31228 ft | 484 kts | 20° |
| 2026-05-03 23:25 | -23.82271 | -47.85023 | 30885 ft | 464 kts | 20° |
| 2026-05-03 23:25 | -23.79432 | -47.83364 | 30375 ft | 461 kts | 20° |
| 2026-05-03 23:25 | -23.76679 | -47.81631 | 29655 ft | 469 kts | 28° |
| 2026-05-03 23:26 | -23.74212 | -47.79228 | 28995 ft | 478 kts | 38° |
| 2026-05-03 23:26 | -23.71833 | -47.76744 | 28623 ft | 469 kts | 37° |
| 2026-05-03 23:26 | -23.69484 | -47.74297 | 28125 ft | 465 kts | 37° |
| 2026-05-03 23:26 | -23.67156 | -47.71856 | 27597 ft | 463 kts | 37° |
| 2026-05-03 23:27 | -23.64841 | -47.69422 | 27101 ft | 460 kts | 38° |
| 2026-05-03 23:27 | -23.62554 | -47.67016 | 26735 ft | 454 kts | 38° |
| 2026-05-03 23:27 | -23.60275 | -47.64622 | 26431 ft | 455 kts | 38° |
| 2026-05-03 23:27 | -23.57998 | -47.62228 | 26091 ft | 454 kts | 38° |
| 2026-05-03 23:28 | -23.55726 | -47.59843 | 25761 ft | 452 kts | 38° |
| 2026-05-03 23:28 | -23.53468 | -47.57473 | 25425 ft | 450 kts | 38° |
| 2026-05-03 23:28 | -23.51215 | -47.55109 | 25091 ft | 448 kts | 38° |
| 2026-05-03 23:28 | -23.48974 | -47.52759 | 24763 ft | 446 kts | 38° |
| 2026-05-03 23:29 | -23.46746 | -47.50424 | 24426 ft | 443 kts | 39° |
| 2026-05-03 23:29 | -23.44528 | -47.48100 | 24098 ft | 441 kts | 39° |
| 2026-05-03 23:29 | -23.42316 | -47.45785 | 23763 ft | 439 kts | 39° |
| 2026-05-03 23:29 | -23.40118 | -47.43484 | 23379 ft | 437 kts | 39° |
| 2026-05-03 23:30 | -23.37959 | -47.41225 | 23046 ft | 434 kts | 39° |
| 2026-05-03 23:30 | -23.35789 | -47.38955 | 22791 ft | 432 kts | 39° |
| 2026-05-03 23:30 | -23.33624 | -47.36692 | 22545 ft | 430 kts | 39° |
| 2026-05-03 23:30 | -23.31473 | -47.34444 | 22281 ft | 428 kts | 39° |
| 2026-05-03 23:31 | -23.29332 | -47.32208 | 22024 ft | 425 kts | 39° |
| 2026-05-03 23:31 | -23.27201 | -47.29983 | 21755 ft | 423 kts | 39° |
| 2026-05-03 23:31 | -23.25082 | -47.27771 | 21491 ft | 421 kts | 39° |
| 2026-05-03 23:31 | -23.22972 | -47.25570 | 21225 ft | 419 kts | 39° |
| 2026-05-03 23:32 | -23.20876 | -47.23384 | 20963 ft | 417 kts | 39° |
| 2026-05-03 23:32 | -23.18785 | -47.21206 | 20703 ft | 415 kts | 40° |
| 2026-05-03 23:32 | -23.16706 | -47.19040 | 20445 ft | 413 kts | 40° |
| 2026-05-03 23:32 | -23.14649 | -47.16870 | 20183 ft | 412 kts | 43° |
| 2026-05-03 23:33 | -23.12731 | -47.14613 | 19902 ft | 410 kts | 44° |
| 2026-05-03 23:33 | -23.10796 | -47.12344 | 19662 ft | 408 kts | 44° |
| 2026-05-03 23:33 | -23.08864 | -47.10094 | 19415 ft | 407 kts | 44° |
| 2026-05-03 23:33 | -23.06939 | -47.07846 | 18975 ft | 408 kts | 44° |
| 2026-05-03 23:34 | -23.05007 | -47.05565 | 18424 ft | 411 kts | 44° |
| 2026-05-03 23:34 | -23.03065 | -47.03276 | 17821 ft | 412 kts | 45° |
| 2026-05-03 23:34 | -23.01117 | -47.00984 | 17232 ft | 413 kts | 45° |
| 2026-05-03 23:34 | -22.99165 | -46.98689 | 16656 ft | 414 kts | 45° |
| 2026-05-03 23:35 | -22.97214 | -46.96394 | 16133 ft | 413 kts | 45° |
| 2026-05-03 23:35 | -22.95260 | -46.94100 | 15538 ft | 414 kts | 45° |
| 2026-05-03 23:35 | -22.93307 | -46.91806 | 15018 ft | 413 kts | 45° |
| 2026-05-03 23:35 | -22.91380 | -46.89543 | 14509 ft | 402 kts | 45° |
| 2026-05-03 23:36 | -22.89638 | -46.87245 | 14090 ft | 389 kts | 59° |
| 2026-05-03 23:36 | -22.89235 | -46.86364 | 13951 ft | 385 kts | 68° |
| 2026-05-03 23:36 | -22.89216 | -46.86313 | 13941 ft | 385 kts | 69° |
| 2026-05-03 23:36 | -22.88827 | -46.83666 | 13623 ft | 368 kts | 96° |
| 2026-05-03 23:37 | -22.89568 | -46.81109 | 13357 ft | 347 kts | 125° |
| 2026-05-03 23:37 | -22.91200 | -46.79376 | 13126 ft | 326 kts | 153° |
| 2026-05-03 23:37 | -22.93230 | -46.78434 | 12938 ft | 314 kts | 160° |
| 2026-05-03 23:37 | -22.95062 | -46.77148 | 12690 ft | 314 kts | 143° |
| 2026-05-03 23:38 | -22.96764 | -46.75663 | 12457 ft | 315 kts | 144° |
| 2026-05-03 23:38 | -22.98478 | -46.74192 | 12200 ft | 314 kts | 143° |
| 2026-05-03 23:38 | -23.00186 | -46.72725 | 11959 ft | 312 kts | 144° |
| 2026-05-03 23:38 | -23.01889 | -46.71264 | 11713 ft | 311 kts | 143° |
| 2026-05-03 23:39 | -23.03579 | -46.69815 | 11473 ft | 307 kts | 143° |
| 2026-05-03 23:39 | -23.05251 | -46.68380 | 11238 ft | 306 kts | 143° |
| 2026-05-03 23:39 | -23.06925 | -46.66942 | 11000 ft | 306 kts | 143° |
| 2026-05-03 23:39 | -23.08593 | -46.65510 | 10767 ft | 305 kts | 143° |
| 2026-05-03 23:40 | -23.10255 | -46.64081 | 10522 ft | 302 kts | 143° |
| 2026-05-03 23:40 | -23.11890 | -46.62676 | 10296 ft | 297 kts | 143° |
| 2026-05-03 23:40 | -23.13499 | -46.61294 | 10075 ft | 292 kts | 143° |
| 2026-05-03 23:40 | -23.15078 | -46.59935 | 9828 ft | 287 kts | 143° |
| 2026-05-03 23:41 | -23.16634 | -46.58598 | 9599 ft | 283 kts | 142° |
| 2026-05-03 23:41 | -23.18143 | -46.57299 | 9378 ft | 277 kts | 143° |
| 2026-05-03 23:41 | -23.19785 | -46.56277 | 9010 ft | 272 kts | 166° |
| 2026-05-03 23:41 | -23.21648 | -46.56168 | 8676 ft | 268 kts | 193° |
| 2026-05-03 23:42 | -23.23348 | -46.56916 | 8432 ft | 262 kts | 212° |
| 2026-05-03 23:42 | -23.24895 | -46.57951 | 8244 ft | 262 kts | 213° |
| 2026-05-03 23:42 | -23.26443 | -46.59008 | 8036 ft | 262 kts | 213° |
| 2026-05-03 23:42 | -23.27979 | -46.60072 | 7826 ft | 262 kts | 213° |
| 2026-05-03 23:43 | -23.29513 | -46.61145 | 7649 ft | 262 kts | 213° |
| 2026-05-03 23:43 | -23.31042 | -46.62222 | 7477 ft | 261 kts | 213° |
| 2026-05-03 23:43 | -23.32566 | -46.63300 | 7287 ft | 261 kts | 213° |
| 2026-05-03 23:43 | -23.34085 | -46.64377 | 7111 ft | 259 kts | 213° |
| 2026-05-03 23:44 | -23.35569 | -46.65430 | 6950 ft | 250 kts | 213° |
| 2026-05-03 23:44 | -23.37001 | -46.66448 | 6780 ft | 241 kts | 213° |
| 2026-05-03 23:44 | -23.38389 | -46.67436 | 6636 ft | 238 kts | 213° |
| 2026-05-03 23:44 | -23.39780 | -46.68424 | 6469 ft | 239 kts | 212° |
| 2026-05-03 23:45 | -23.41167 | -46.69411 | 6318 ft | 238 kts | 211° |
| 2026-05-03 23:45 | -23.42667 | -46.70111 | 6097 ft | 232 kts | 184° |
| 2026-05-03 23:45 | -23.44211 | -46.69978 | 6025 ft | 217 kts | 167° |
| 2026-05-03 23:45 | -23.45665 | -46.69679 | 5903 ft | 206 kts | 166° |
| 2026-05-03 23:46 | -23.47001 | -46.69361 | 5755 ft | 193 kts | 156° |
| 2026-05-03 23:46 | -23.48019 | -46.68528 | 5567 ft | 178 kts | 123° |
| 2026-05-03 23:46 | -23.48438 | -46.67303 | 5420 ft | 173 kts | 96° |
| 2026-05-03 23:46 | -23.48336 | -46.66001 | 5345 ft | 172 kts | 82° |
| 2026-05-03 23:47 | -23.48117 | -46.64721 | 5255 ft | 172 kts | 80° |
| 2026-05-03 23:47 | -23.47834 | -46.63471 | 5140 ft | 167 kts | 78° |
| 2026-05-03 23:47 | -23.47523 | -46.62260 | 4965 ft | 165 kts | 77° |
| 2026-05-03 23:47 | -23.47211 | -46.61093 | 4788 ft | 157 kts | 77° |
| 2026-05-03 23:48 | -23.46911 | -46.59973 | 4587 ft | 152 kts | 78° |
| 2026-05-03 23:48 | -23.46615 | -46.58869 | 4385 ft | 150 kts | 77° |
| 2026-05-03 23:48 | -23.46327 | -46.57796 | 4227 ft | 145 kts | 77° |
| 2026-05-03 23:48 | -23.46046 | -46.56752 | 4007 ft | 144 kts | 77° |
| 2026-05-03 23:49 | -23.45764 | -46.55703 | 3840 ft | 145 kts | 78° |
| 2026-05-03 23:49 | -23.45483 | -46.54661 | 3671 ft | 142 kts | 78° |
| 2026-05-03 23:49 | -23.45207 | -46.53627 | 3465 ft | 144 kts | 77° |
| 2026-05-03 23:49 | -23.44917 | -46.52559 | 3312 ft | 150 kts | 75° |
| 2026-05-03 23:50 | -23.44628 | -46.51483 | 3076 ft | 146 kts | 75° |
| 2026-05-03 23:50 | -23.44439 | -46.50786 | 2907 ft | 145 kts | 75° |
| 2026-05-03 23:50 | -23.44064 | -46.49387 | 2612 ft | 145 kts | 75° |
| 2026-05-03 23:50 | -23.43784 | -46.48356 | 2474 ft | 137 kts | 75° |
| 2026-05-03 23:51 | -23.43558 | -46.47503 | 2472 ft | 87 kts | 74° |
| 2026-05-03 23:51 | -23.43431 | -46.47042 | 2471 ft | 29 kts | 67° |
| 2026-05-03 23:51 | -23.43318 | -46.46882 | 2471 ft | 25 kts | 44° |
| 2026-05-03 23:51 | -23.43209 | -46.46767 | 2472 ft | 21 kts | 44° |
| 2026-05-03 23:52 | -23.43093 | -46.46717 | 2473 ft | 18 kts | 354° |
| 2026-05-03 23:52 | -23.42972 | -46.46751 | 2474 ft | 19 kts | 343° |
| 2026-05-03 23:52 | -23.42836 | -46.46797 | 2472 ft | 22 kts | 342° |
| 2026-05-03 23:52 | -23.42785 | -46.46914 | 2472 ft | 20 kts | 254° |
| 2026-05-03 23:53 | -23.42826 | -46.47062 | 2473 ft | 21 kts | 253° |
| 2026-05-03 23:53 | -23.42869 | -46.47221 | 2473 ft | 23 kts | 253° |
| 2026-05-03 23:53 | -23.42915 | -46.47391 | 2473 ft | 24 kts | 253° |
| 2026-05-03 23:53 | -23.42963 | -46.47570 | 2471 ft | 25 kts | 253° |
| 2026-05-03 23:54 | -23.43014 | -46.47759 | 2472 ft | 27 kts | 253° |
| 2026-05-03 23:54 | -23.43068 | -46.47956 | 2475 ft | 28 kts | 253° |
| 2026-05-03 23:54 | -23.43090 | -46.48103 | 2474 ft | 16 kts | 301° |
| 2026-05-03 23:54 | -23.42987 | -46.48136 | 2472 ft | 17 kts | 355° |
| 2026-05-03 23:55 | -23.42893 | -46.48144 | 2476 ft | 3 kts | 3° |
| 2026-05-03 23:55 | -23.42861 | -46.48147 | 2474 ft | 8 kts | 352° |
| 2026-05-03 23:55 | -23.42803 | -46.48145 | 2471 ft | 6 kts | 44° |
| 2026-05-03 23:55 | -23.42795 | -46.48098 | 2473 ft | 7 kts | 88° |
| 2026-05-03 23:56 | -23.42794 | -46.48075 | 2474 ft | 3 kts | 86° |
| 2026-05-03 23:56 | -23.42793 | -46.48060 | 2474 ft | 0 kts | 85° |